sensor_id;sensor_type;location;lat;lon;timestamp;P1;durP1;ratioP1;P2;durP2;ratioP2
34521;SDS011;25561;48.888;8.736;2023-04-06T05:30:40;20.65;;;7.82;;
34521;SDS011;25561;48.888;8.736;2023-04-06T05:33:42;15.13;;;6.43;;
34521;SDS011;25561;48.888;8.736;2023-04-06T05:36:43;15.65;;;7.30;;
34521;SDS011;25561;48.888;8.736;2023-04-06T05:39:45;15.27;;;6.85;;
34521;SDS011;25561;48.888;8.736;2023-04-06T05:42:47;12.25;;;6.63;;
34521;SDS011;25561;48.888;8.736;2023-04-06T05:45:50;14.27;;;6.20;;
34521;SDS011;25561;48.888;8.736;2023-04-06T05:48:52;13.45;;;5.75;;
34521;SDS011;25561;48.888;8.736;2023-04-06T05:51:54;16.33;;;6.57;;
34521;SDS011;25561;48.888;8.736;2023-04-06T05:54:56;13.18;;;6.55;;
34521;SDS011;25561;48.888;8.736;2023-04-06T05:57:58;11.15;;;6.00;;
34521;SDS011;25561;48.888;8.736;2023-04-06T06:01:00;14.77;;;6.75;;
34521;SDS011;25561;48.888;8.736;2023-04-06T06:04:03;15.43;;;6.28;;
34521;SDS011;25561;48.888;8.736;2023-04-06T06:07:05;13.52;;;6.57;;
34521;SDS011;25561;48.888;8.736;2023-04-06T06:10:07;12.90;;;6.70;;
34521;SDS011;25561;48.888;8.736;2023-04-06T06:49:44;15.57;;;7.43;;
34521;SDS011;25561;48.888;8.736;2023-04-06T06:52:46;11.45;;;6.50;;
34521;SDS011;25561;48.888;8.736;2023-04-06T06:55:47;12.55;;;6.75;;
34521;SDS011;25561;48.888;8.736;2023-04-06T06:58:52;13.90;;;6.30;;
34521;SDS011;25561;48.888;8.736;2023-04-06T07:01:54;15.10;;;6.53;;
34521;SDS011;25561;48.888;8.736;2023-04-06T07:04:56;11.75;;;6.47;;
34521;SDS011;25561;48.888;8.736;2023-04-06T07:07:58;11.20;;;6.40;;
34521;SDS011;25561;48.888;8.736;2023-04-06T07:10:59;14.55;;;6.60;;
34521;SDS011;25561;48.888;8.736;2023-04-06T07:14:01;13.43;;;6.38;;
34521;SDS011;25561;48.888;8.736;2023-04-06T07:17:03;11.73;;;5.93;;
34521;SDS011;25561;48.888;8.736;2023-04-06T07:20:05;16.50;;;6.20;;
34521;SDS011;25561;48.888;8.736;2023-04-06T07:23:08;10.30;;;6.05;;
34521;SDS011;25561;48.888;8.736;2023-04-06T07:26:09;10.57;;;5.43;;
34521;SDS011;25561;48.888;8.736;2023-04-06T07:29:11;11.68;;;5.43;;
34521;SDS011;25561;48.888;8.736;2023-04-06T07:32:14;8.65;;;5.10;;
34521;SDS011;25561;48.888;8.736;2023-04-06T07:35:16;11.88;;;5.28;;
34521;SDS011;25561;48.888;8.736;2023-04-06T07:38:17;10.35;;;6.03;;
34521;SDS011;25561;48.888;8.736;2023-04-06T07:41:19;9.68;;;5.53;;
34521;SDS011;25561;48.888;8.736;2023-04-06T07:44:21;9.05;;;5.63;;
34521;SDS011;25561;48.888;8.736;2023-04-06T07:47:23;8.68;;;5.80;;
34521;SDS011;25561;48.888;8.736;2023-04-06T07:50:24;12.02;;;5.47;;
34521;SDS011;25561;48.888;8.736;2023-04-06T07:53:26;11.15;;;5.50;;
34521;SDS011;25561;48.888;8.736;2023-04-06T07:56:28;10.23;;;6.50;;
34521;SDS011;25561;48.888;8.736;2023-04-06T07:59:30;12.68;;;6.07;;
34521;SDS011;25561;48.888;8.736;2023-04-06T08:02:31;10.65;;;6.13;;
34521;SDS011;25561;48.888;8.736;2023-04-06T08:05:33;11.13;;;6.53;;
34521;SDS011;25561;48.888;8.736;2023-04-06T08:08:35;18.25;;;7.78;;
34521;SDS011;25561;48.888;8.736;2023-04-06T08:11:37;21.00;;;8.60;;
34521;SDS011;25561;48.888;8.736;2023-04-06T08:14:39;16.98;;;8.40;;
34521;SDS011;25561;48.888;8.736;2023-04-06T08:17:41;34.50;;;8.75;;
34521;SDS011;25561;48.888;8.736;2023-04-06T08:20:43;36.95;;;10.43;;
34521;SDS011;25561;48.888;8.736;2023-04-06T08:23:44;31.75;;;10.18;;
34521;SDS011;25561;48.888;8.736;2023-04-06T08:26:47;34.30;;;10.20;;
34521;SDS011;25561;48.888;8.736;2023-04-06T08:29:49;32.65;;;8.50;;
34521;SDS011;25561;48.888;8.736;2023-04-06T08:32:52;25.85;;;7.57;;
34521;SDS011;25561;48.888;8.736;2023-04-06T08:35:54;16.10;;;7.07;;
34521;SDS011;25561;48.888;8.736;2023-04-06T08:38:56;38.88;;;8.02;;
34521;SDS011;25561;48.888;8.736;2023-04-06T08:41:58;11.77;;;7.03;;
34521;SDS011;25561;48.888;8.736;2023-04-06T08:45:01;19.25;;;6.45;;
34521;SDS011;25561;48.888;8.736;2023-04-06T08:48:03;13.15;;;6.93;;
34521;SDS011;25561;48.888;8.736;2023-04-06T08:51:08;18.17;;;8.15;;
34521;SDS011;25561;48.888;8.736;2023-04-06T08:54:11;13.95;;;6.60;;
34521;SDS011;25561;48.888;8.736;2023-04-06T08:57:12;16.42;;;6.90;;
34521;SDS011;25561;48.888;8.736;2023-04-06T09:00:15;20.08;;;7.03;;
34521;SDS011;25561;48.888;8.736;2023-04-06T09:03:18;15.85;;;6.75;;
34521;SDS011;25561;48.888;8.736;2023-04-06T09:06:21;19.63;;;6.22;;
34521;SDS011;25561;48.888;8.736;2023-04-06T09:09:23;9.75;;;5.97;;
34521;SDS011;25561;48.888;8.736;2023-04-06T09:12:26;15.48;;;7.07;;
34521;SDS011;25561;48.888;8.736;2023-04-06T09:15:29;15.32;;;6.53;;
34521;SDS011;25561;48.888;8.736;2023-04-06T09:18:31;15.75;;;6.85;;
34521;SDS011;25561;48.888;8.736;2023-04-06T09:21:34;10.98;;;6.65;;
34521;SDS011;25561;48.888;8.736;2023-04-06T09:24:46;9.32;;;6.15;;
34521;SDS011;25561;48.888;8.736;2023-04-06T09:27:58;15.13;;;6.70;;
34521;SDS011;25561;48.888;8.736;2023-04-06T09:31:01;10.93;;;6.18;;
34521;SDS011;25561;48.888;8.736;2023-04-06T09:34:03;12.68;;;6.88;;
34521;SDS011;25561;48.888;8.736;2023-04-06T09:40:19;13.40;;;7.85;;
34521;SDS011;25561;48.888;8.736;2023-04-06T09:43:28;13.13;;;7.20;;
34521;SDS011;25561;48.888;8.736;2023-04-06T09:46:31;12.68;;;7.50;;
34521;SDS011;25561;48.888;8.736;2023-04-06T09:49:51;19.13;;;6.65;;
34521;SDS011;25561;48.888;8.736;2023-04-06T09:53:00;12.38;;;6.20;;
34521;SDS011;25561;48.888;8.736;2023-04-06T09:56:04;12.30;;;6.78;;
34521;SDS011;25561;48.888;8.736;2023-04-06T09:59:16;10.07;;;6.68;;
34521;SDS011;25561;48.888;8.736;2023-04-06T10:05:48;13.10;;;7.68;;
34521;SDS011;25561;48.888;8.736;2023-04-06T10:08:53;9.40;;;6.75;;
34521;SDS011;25561;48.888;8.736;2023-04-06T10:11:57;12.30;;;7.22;;
34521;SDS011;25561;48.888;8.736;2023-04-06T10:14:59;12.93;;;6.95;;
34521;SDS011;25561;48.888;8.736;2023-04-06T10:18:01;12.70;;;8.07;;
34521;SDS011;25561;48.888;8.736;2023-04-06T10:21:11;10.80;;;6.90;;
34521;SDS011;25561;48.888;8.736;2023-04-06T10:24:15;10.82;;;7.30;;
34521;SDS011;25561;48.888;8.736;2023-04-06T10:27:27;10.50;;;6.22;;
34521;SDS011;25561;48.888;8.736;2023-04-06T10:30:30;10.32;;;6.13;;
34521;SDS011;25561;48.888;8.736;2023-04-06T10:33:33;13.38;;;6.97;;
34521;SDS011;25561;48.888;8.736;2023-04-06T10:36:35;11.20;;;6.75;;
34521;SDS011;25561;48.888;8.736;2023-04-06T10:39:45;10.35;;;6.40;;
34521;SDS011;25561;48.888;8.736;2023-04-06T10:43:12;14.52;;;7.88;;
34521;SDS011;25561;48.888;8.736;2023-04-06T10:46:14;13.32;;;8.55;;
34521;SDS011;25561;48.888;8.736;2023-04-06T10:49:30;12.57;;;8.18;;
34521;SDS011;25561;48.888;8.736;2023-04-06T10:52:32;15.23;;;8.48;;
34521;SDS011;25561;48.888;8.736;2023-04-06T10:55:33;13.00;;;7.32;;
34521;SDS011;25561;48.888;8.736;2023-04-06T10:58:35;12.68;;;7.45;;
34521;SDS011;25561;48.888;8.736;2023-04-06T11:01:38;12.18;;;7.80;;
34521;SDS011;25561;48.888;8.736;2023-04-06T11:04:53;14.25;;;8.07;;
34521;SDS011;25561;48.888;8.736;2023-04-06T11:07:58;10.52;;;7.30;;
34521;SDS011;25561;48.888;8.736;2023-04-06T11:11:03;12.23;;;7.93;;
34521;SDS011;25561;48.888;8.736;2023-04-06T11:14:09;14.90;;;7.65;;
34521;SDS011;25561;48.888;8.736;2023-04-06T11:17:12;13.38;;;8.07;;
34521;SDS011;25561;48.888;8.736;2023-04-06T11:20:14;15.35;;;7.25;;
34521;SDS011;25561;48.888;8.736;2023-04-06T11:23:22;9.73;;;7.43;;
34521;SDS011;25561;48.888;8.736;2023-04-06T11:26:25;10.32;;;6.95;;
34521;SDS011;25561;48.888;8.736;2023-04-06T11:29:27;11.45;;;7.60;;
34521;SDS011;25561;48.888;8.736;2023-04-06T11:32:38;13.57;;;7.60;;
34521;SDS011;25561;48.888;8.736;2023-04-06T11:35:45;12.50;;;7.88;;
34521;SDS011;25561;48.888;8.736;2023-04-06T11:38:47;12.60;;;7.45;;
34521;SDS011;25561;48.888;8.736;2023-04-06T11:41:49;14.25;;;7.88;;
34521;SDS011;25561;48.888;8.736;2023-04-06T11:44:56;15.45;;;6.93;;
34521;SDS011;25561;48.888;8.736;2023-04-06T11:47:59;14.73;;;7.53;;
34521;SDS011;25561;48.888;8.736;2023-04-06T11:51:01;13.43;;;7.65;;
34521;SDS011;25561;48.888;8.736;2023-04-06T11:54:06;14.50;;;7.90;;
34521;SDS011;25561;48.888;8.736;2023-04-06T11:57:08;11.45;;;7.07;;
34521;SDS011;25561;48.888;8.736;2023-04-06T12:00:10;15.75;;;6.85;;
34521;SDS011;25561;48.888;8.736;2023-04-06T12:03:13;18.20;;;7.32;;
34521;SDS011;25561;48.888;8.736;2023-04-06T12:06:16;13.80;;;7.70;;
34521;SDS011;25561;48.888;8.736;2023-04-06T12:09:18;12.95;;;7.53;;
34521;SDS011;25561;48.888;8.736;2023-04-06T12:12:20;12.10;;;7.20;;
34521;SDS011;25561;48.888;8.736;2023-04-06T12:15:21;13.45;;;7.20;;
34521;SDS011;25561;48.888;8.736;2023-04-06T12:18:23;15.30;;;8.00;;
34521;SDS011;25561;48.888;8.736;2023-04-06T12:21:26;20.73;;;8.13;;
34521;SDS011;25561;48.888;8.736;2023-04-06T12:24:29;14.65;;;8.50;;
34521;SDS011;25561;48.888;8.736;2023-04-06T12:27:31;14.30;;;8.90;;
34521;SDS011;25561;48.888;8.736;2023-04-06T12:30:34;32.15;;;9.15;;
34521;SDS011;25561;48.888;8.736;2023-04-06T12:33:36;14.40;;;8.45;;
34521;SDS011;25561;48.888;8.736;2023-04-06T12:36:38;12.95;;;7.70;;
34521;SDS011;25561;48.888;8.736;2023-04-06T12:39:40;15.07;;;7.68;;
34521;SDS011;25561;48.888;8.736;2023-04-06T12:42:42;13.90;;;7.43;;
34521;SDS011;25561;48.888;8.736;2023-04-06T12:45:43;14.30;;;7.97;;
34521;SDS011;25561;48.888;8.736;2023-04-06T12:48:46;15.50;;;7.82;;
34521;SDS011;25561;48.888;8.736;2023-04-06T12:51:48;15.55;;;7.95;;
34521;SDS011;25561;48.888;8.736;2023-04-06T12:54:49;14.10;;;8.10;;
34521;SDS011;25561;48.888;8.736;2023-04-06T12:57:55;14.45;;;7.55;;
34521;SDS011;25561;48.888;8.736;2023-04-06T13:01:07;16.33;;;7.63;;
34521;SDS011;25561;48.888;8.736;2023-04-06T13:04:09;13.15;;;7.75;;
34521;SDS011;25561;48.888;8.736;2023-04-06T13:07:11;18.15;;;8.07;;
34521;SDS011;25561;48.888;8.736;2023-04-06T13:10:13;12.38;;;7.60;;
34521;SDS011;25561;48.888;8.736;2023-04-06T13:13:15;15.93;;;7.47;;
34521;SDS011;25561;48.888;8.736;2023-04-06T13:16:16;15.25;;;7.80;;
34521;SDS011;25561;48.888;8.736;2023-04-06T13:19:18;13.07;;;7.75;;
34521;SDS011;25561;48.888;8.736;2023-04-06T13:22:20;11.60;;;7.68;;
34521;SDS011;25561;48.888;8.736;2023-04-06T13:25:22;15.88;;;7.05;;
34521;SDS011;25561;48.888;8.736;2023-04-06T13:28:24;14.30;;;7.93;;
34521;SDS011;25561;48.888;8.736;2023-04-06T13:31:27;11.73;;;7.15;;
34521;SDS011;25561;48.888;8.736;2023-04-06T13:34:29;11.18;;;7.03;;
34521;SDS011;25561;48.888;8.736;2023-04-06T13:37:32;13.63;;;8.13;;
34521;SDS011;25561;48.888;8.736;2023-04-06T13:40:34;15.52;;;7.97;;
34521;SDS011;25561;48.888;8.736;2023-04-06T13:43:35;13.27;;;8.00;;
34521;SDS011;25561;48.888;8.736;2023-04-06T13:46:37;17.00;;;8.00;;
34521;SDS011;25561;48.888;8.736;2023-04-06T13:49:39;16.48;;;8.27;;
34521;SDS011;25561;48.888;8.736;2023-04-06T13:52:41;14.98;;;7.28;;
34521;SDS011;25561;48.888;8.736;2023-04-06T13:55:43;13.88;;;7.38;;
34521;SDS011;25561;48.888;8.736;2023-04-06T13:58:45;10.45;;;6.43;;
34521;SDS011;25561;48.888;8.736;2023-04-06T14:01:47;15.63;;;6.32;;
34521;SDS011;25561;48.888;8.736;2023-04-06T14:04:49;14.48;;;6.00;;
34521;SDS011;25561;48.888;8.736;2023-04-06T14:07:51;10.98;;;6.40;;
34521;SDS011;25561;48.888;8.736;2023-04-06T14:10:53;13.48;;;6.30;;
34521;SDS011;25561;48.888;8.736;2023-04-06T14:13:56;12.95;;;6.63;;
34521;SDS011;25561;48.888;8.736;2023-04-06T14:16:59;11.82;;;6.07;;
34521;SDS011;25561;48.888;8.736;2023-04-06T14:20:01;8.60;;;4.93;;
34521;SDS011;25561;48.888;8.736;2023-04-06T14:23:03;12.75;;;6.03;;
34521;SDS011;25561;48.888;8.736;2023-04-06T14:26:06;10.20;;;5.55;;
34521;SDS011;25561;48.888;8.736;2023-04-06T14:29:09;11.00;;;6.30;;
34521;SDS011;25561;48.888;8.736;2023-04-06T14:32:11;10.50;;;6.13;;
34521;SDS011;25561;48.888;8.736;2023-04-06T14:35:13;11.25;;;6.15;;
34521;SDS011;25561;48.888;8.736;2023-04-06T14:38:14;9.50;;;6.00;;
34521;SDS011;25561;48.888;8.736;2023-04-06T14:41:19;10.55;;;6.22;;
34521;SDS011;25561;48.888;8.736;2023-04-06T14:44:23;11.45;;;6.00;;
34521;SDS011;25561;48.888;8.736;2023-04-06T14:47:25;13.55;;;5.68;;
34521;SDS011;25561;48.888;8.736;2023-04-06T14:50:27;11.10;;;5.28;;
34521;SDS011;25561;48.888;8.736;2023-04-06T14:53:29;10.52;;;5.72;;
34521;SDS011;25561;48.888;8.736;2023-04-06T14:56:31;9.25;;;5.55;;
34521;SDS011;25561;48.888;8.736;2023-04-06T14:59:33;7.45;;;4.72;;
34521;SDS011;25561;48.888;8.736;2023-04-06T15:02:39;8.32;;;4.53;;
34521;SDS011;25561;48.888;8.736;2023-04-06T15:05:41;12.88;;;5.47;;
34521;SDS011;25561;48.888;8.736;2023-04-06T15:08:43;10.25;;;5.75;;
34521;SDS011;25561;48.888;8.736;2023-04-06T15:11:46;9.15;;;5.55;;
34521;SDS011;25561;48.888;8.736;2023-04-06T15:14:47;9.93;;;5.43;;
34521;SDS011;25561;48.888;8.736;2023-04-06T15:17:49;9.13;;;5.72;;
34521;SDS011;25561;48.888;8.736;2023-04-06T15:20:51;11.60;;;6.53;;
34521;SDS011;25561;48.888;8.736;2023-04-06T15:23:53;12.75;;;5.97;;
34521;SDS011;25561;48.888;8.736;2023-04-06T15:26:55;9.43;;;4.90;;
34521;SDS011;25561;48.888;8.736;2023-04-06T15:29:57;10.60;;;5.28;;
34521;SDS011;25561;48.888;8.736;2023-04-06T15:33:00;12.32;;;5.57;;
34521;SDS011;25561;48.888;8.736;2023-04-06T15:36:05;9.75;;;5.22;;
34521;SDS011;25561;48.888;8.736;2023-04-06T15:39:18;13.52;;;5.45;;
34521;SDS011;25561;48.888;8.736;2023-04-06T15:42:19;8.98;;;4.78;;
34521;SDS011;25561;48.888;8.736;2023-04-06T15:45:21;11.07;;;4.88;;
34521;SDS011;25561;48.888;8.736;2023-04-06T15:48:26;17.75;;;5.35;;
34521;SDS011;25561;48.888;8.736;2023-04-06T15:51:31;8.75;;;4.68;;
34521;SDS011;25561;48.888;8.736;2023-04-06T15:54:33;8.63;;;4.78;;
34521;SDS011;25561;48.888;8.736;2023-04-06T15:57:36;10.70;;;4.75;;
